Weather observations for the past three days for
Weaverville
Imperial (Metric)
Date Time (pdt) Wind (mph) Vis. (mi.) Weather Sky Cond. Temperature (ºF) Relative Humidity Wind Chill (°F) Heat Index (°F) Pressure Precipitation (in)
Air Dwpt 6 hour altimeter (in) sea level (mb) 1 hr 3 hr 6 hr
Max. Min.
09 18:15 Calm 10.00 Fair CLR 87.8 35.6 16% 84 29.92 0.0
09 17:55 Calm 10.00 Fair CLR 87.8 37.4 17% 84 29.93 0.0
09 17:35 Calm 10.00 Fair CLR 89.6 35.6 15% 86 29.93 0.0
09 17:15 Calm 10.00 Fair CLR 87.8 39.2 18% 84 29.93 0.0
09 16:55 Vrbl 3 10.00 Fair CLR 87.8 37.4 17% 84 29.94 0.0
09 16:35 Vrbl 5 10.00 Fair CLR 87.8 37.4 17% 84 29.94 0.0
09 16:15 W 3 10.00 Fair CLR 87.8 37.4 17% 84 29.95 0.0
09 15:55 NW 3 10.00 Fair CLR 87.8 37.4 17% 84 29.96 0.0
09 15:35 Calm 10.00 Fair CLR 87.8 33.8 15% 84 29.97 0.0
09 15:15 Calm 10.00 Fair CLR 86 35.6 17% 83 29.98 0.0
09 14:55 Vrbl 5 G 14 10.00 Fair CLR 86 37.4 18% 83 29.98 0.0
09 14:35 W 5 10.00 Fair CLR 86 39.2 19% 83 29.99 0.0
09 14:15 Vrbl 3 10.00 Fair CLR 84.2 39.2 20% 81 29.99 0.0
09 13:55 Calm 10.00 Fair CLR 84.2 39.2 20% 81 30 0.0
09 13:35 S 7 10.00 Fair CLR 84.2 37.4 19% 81 30 0.0
09 13:15 Vrbl 3 10.00 Fair CLR 82.4 37.4 20% 80 30.01 0.0
09 12:55 Calm 10.00 Fair CLR 80.6 42.8 26% 79 30.02 0.0
09 12:35 S 5 10.00 Fair CLR 78.8 46.4 32% 79 30.03 0.0
09 12:15 Calm 10.00 Fair CLR 77 46.4 34% 78 30.04 0.0
09 11:55 SW 5 10.00 Fair CLR 75.2 46.4 36% 77 30.04 0.0
09 11:35 Calm 10.00 Fair CLR 73.4 46.4 38% 30.05 0.0
09 11:15 Calm 10.00 Fair CLR 71.6 44.6 38% 30.05 0.0
09 10:55 S 3 10.00 Fair CLR 69.8 44.6 40% 30.06 0.0
09 10:35 Calm 10.00 Fair CLR 68 44.6 43% 30.07 0.0
09 10:15 SW 5 10.00 Fair CLR 66.2 44.6 46% 30.07 0.0
09 09:55 Calm 10.00 Fair CLR 64.4 42.8 46% 30.07 0.0
09 09:35 Calm 10.00 Fair CLR 62.6 42.8 49% 30.09 0.0
09 09:15 SW 3 10.00 Fair CLR 59 42.8 55% 30.09 0.0
09 08:55 Calm 10.00 Fair CLR 57.2 41 55% 30.09 0.0
09 08:35 Calm 10.00 Fair CLR 55.4 42.8 63% 30.1 0.0
09 08:15 Calm 10.00 Fair CLR 53.6 41 63% 30.1 0.0
09 07:55 Calm 10.00 Fair CLR 51.8 42.8 72% 30.1 0.0
09 07:35 Calm 10.00 Fair CLR 48.2 42.8 82% 30.1 0.0
09 07:15 Calm 10.00 Fair CLR 46.4 41 82% 30.1 0.0
09 06:50 Calm 10.00 Fair CLR 44.6 41 87% 30.1 0.0
09 06:35 Calm 10.00 Fair CLR 44.6 41 87% 30.1 0.0
09 06:15 Calm 10.00 Fair CLR 44.6 41 87% 30.09 0.0
09 05:55 Calm 10.00 Fair CLR 44.6 41 87% 30.09 0.0
09 05:35 Calm 10.00 Fair CLR 44.6 41 87% 30.09 0.0
09 05:15 Calm 10.00 Fair CLR 44.6 41 87% 30.09 0.0
09 04:55 Calm 10.00 Fair CLR 46.4 41 82% 30.09 0.0
09 04:35 Calm 10.00 Fair CLR 46.4 41 82% 30.09 0.0
09 04:15 Calm 10.00 Fair CLR 46.4 41 82% 30.09 0.0
09 03:50 Calm 10.00 Fair CLR 46.4 41 82% 30.09 0.0
09 03:35 Calm 10.00 Fair CLR 48.2 41 76% 30.1 0.0
09 03:15 Calm 10.00 Fair CLR 48.2 41 76% 30.09 0.0
09 02:55 Calm 10.00 Fair CLR 48.2 41 76% 30.09 0.0
09 02:35 Calm 10.00 Fair CLR 48.2 41 76% 30.09 0.0
09 02:15 Calm 10.00 Fair CLR 50 41 71% 30.09 0.0
09 01:55 Calm 10.00 Fair CLR 50 41 71% 30.09 0.0
09 01:35 Calm 10.00 Fair CLR 51.8 41 67% 30.09 0.0
09 01:15 Calm 10.00 Fair CLR 51.8 42.8 72% 30.09 0.0
09 00:55 Calm 10.00 Fair CLR 51.8 42.8 72% 30.09 0.0
09 00:35 NE 5 10.00 Fair CLR 53.6 42.8 67% 30.09 0.0
09 00:15 Calm 10.00 Fair CLR 53.6 42.8 67% 30.09 0.0
08 23:55 Calm 10.00 Fair CLR 53.6 42.8 67% 30.09 0.0
08 23:35 N 3 10.00 Fair CLR 55.4 42.8 63% 30.08 0.0
08 23:15 Calm 10.00 Fair CLR 55.4 44.6 67% 30.08 0.0
08 22:55 Calm 10.00 Fair CLR 57.2 44.6 63% 30.08 0.0
08 22:35 Calm 10.00 Fair CLR 57.2 44.6 63% 30.07 0.0
08 22:15 Calm 10.00 Fair CLR 59 44.6 59% 30.07 0.0
08 21:55 N 5 10.00 Fair CLR 59 44.6 59% 30.06 0.0
08 21:35 Calm 10.00 Fair CLR 60.8 44.6 55% 30.06 0.0
08 21:15 NE 5 10.00 Fair CLR 62.6 44.6 52% 30.04 0.0
08 20:55 Calm 10.00 Fair CLR 64.4 46.4 52% 30.03 0.0
08 20:35 Calm 10.00 Fair CLR 66.2 44.6 46% 30.02 0.0
08 20:15 Calm 10.00 Fair CLR 73.4 39.2 29% 30.02 0.0
08 19:55 Vrbl 5 10.00 Fair CLR 75.2 37.4 25% 77 30.01 0.0
08 19:35 Vrbl 5 10.00 Fair CLR 77 37.4 24% 77 30 0.0
08 19:15 SW 6 10.00 Fair CLR 78.8 37.4 23% 78 30 0.0
08 18:55 Vrbl 7 10.00 Fair CLR 80.6 33.8 18% 79 30 0.0
08 18:35 Vrbl 5 10.00 Fair CLR 80.6 32 17% 79 30 0.0
08 18:15 Vrbl 6 G 14 10.00 Fair CLR 80.6 30.2 16% 79 30 0.0
08 17:55 NW 7 10.00 Fair CLR 82.4 32 16% 80 30 0.0
08 17:35 Vrbl 5 G 12 10.00 Fair CLR 82.4 30.2 15% 80 30.01 0.0
08 17:15 W 6 10.00 Fair CLR 82.4 33.8 17% 80 30 0.0
08 16:55 SW 7 G 16 10.00 Fair CLR 82.4 33.8 17% 80 30.01 0.0
08 16:35 Vrbl 7 10.00 Fair CLR 82.4 33.8 17% 80 30.01 0.0
08 16:15 Vrbl 6 G 13 10.00 Fair CLR 82.4 32 16% 80 30.02 0.0
08 15:55 SW 9 G 16 10.00 Fair CLR 82.4 26.6 13% 80 30.03 0.0
08 15:35 SW 9 10.00 Fair CLR 82.4 28.4 14% 80 30.03 0.0
08 15:15 SW 9 10.00 Fair CLR 82.4 28.4 14% 80 30.04 0.0
08 14:55 Vrbl 7 G 14 10.00 Fair CLR 80.6 30.2 16% 79 30.05 0.0
08 14:35 SW 10 10.00 Fair CLR 80.6 30.2 16% 79 30.05 0.0
08 14:15 Vrbl 6 G 12 10.00 Fair CLR 80.6 28.4 15% 79 30.06 0.0
08 13:55 Vrbl 6 G 13 10.00 Fair CLR 80.6 24.8 13% 79 30.06 0.0
08 13:35 W 6 10.00 Fair CLR 78.8 26.6 15% 78 30.07 0.0
08 13:15 W 6 10.00 Fair CLR 78.8 26.6 15% 78 30.07 0.0
08 12:50 Vrbl 5 10.00 Fair CLR 75.2 41 29% 77 30.08 0.0
08 12:35 Calm 10.00 Fair CLR 75.2 39.2 27% 77 30.09 0.0
08 12:15 Calm 10.00 Fair CLR 75.2 42.8 31% 77 30.09 0.0
08 11:55 Calm 10.00 Fair CLR 71.6 46.4 41% 30.1 0.0
08 11:35 Calm 10.00 Fair CLR 69.8 48.2 46% 30.11 0.0
08 11:15 Calm 10.00 Fair CLR 69.8 44.6 40% 30.11 0.0
08 10:55 Calm 10.00 Fair CLR 68 44.6 43% 30.11 0.0
08 10:35 Calm 10.00 Fair CLR 68 44.6 43% 30.12 0.0
08 10:15 Calm 10.00 Fair CLR 66.2 44.6 46% 30.12 0.0
08 09:50 Calm 10.00 Fair CLR 62.6 42.8 49% 30.12 0.0
08 09:35 Calm 10.00 Fair CLR 60.8 44.6 55% 30.12 0.0
08 09:15 Calm 10.00 Fair CLR 60.8 44.6 55% 30.13 0.0
08 08:55 Calm 10.00 Fair CLR 57.2 44.6 63% 30.13 0.0
08 08:35 SW 3 10.00 Fair CLR 55.4 44.6 67% 30.13 0.0
08 08:15 Calm 10.00 Fair CLR 53.6 44.6 72% 30.13 0.0
08 07:55 Calm 10.00 Fair CLR 51.8 44.6 77% 30.13 0.0
08 07:35 Calm 10.00 Fair CLR 48.2 44.6 87% 30.12 0.0
08 07:15 Calm 10.00 Fair CLR 46.4 42.8 87% 30.12 0.0
08 06:50 Calm 10.00 Fair CLR 44.6 42.8 93% 30.11 0.0
08 06:35 Calm 10.00 Fair CLR 44.6 42.8 93% 30.11 0.0
08 06:15 Calm 10.00 Fair CLR 46.4 42.8 87% 30.11 0.0
08 05:55 Calm 10.00 Fair CLR 46.4 42.8 87% 30.1 0.0
08 05:35 Calm 10.00 Fair CLR 46.4 42.8 87% 30.1 0.0
08 05:15 Calm 10.00 Fair CLR 46.4 42.8 87% 30.1 0.0
08 04:55 Calm 10.00 Fair CLR 46.4 42.8 87% 30.09 0.0
08 04:35 Calm 10.00 Fair CLR 46.4 42.8 87% 30.09 0.0
08 04:15 Calm 10.00 Fair CLR 46.4 42.8 87% 30.09 0.0
08 03:50 Calm 10.00 Fair CLR 46.4 42.8 87% 30.09 0.0
08 03:35 Calm 10.00 Fair CLR 46.4 42.8 87% 30.09 0.0
08 03:15 Calm 10.00 Fair CLR 48.2 42.8 82% 30.09 0.0
08 02:55 Calm 10.00 Fair CLR 48.2 42.8 82% 30.09 0.0
08 02:35 Calm 10.00 Fair CLR 48.2 42.8 82% 30.08 0.0
08 02:15 Calm 10.00 Fair CLR 48.2 42.8 82% 30.08 0.0
08 01:55 Calm 10.00 Fair CLR 50 42.8 76% 30.08 0.0
08 01:35 Calm 10.00 Fair CLR 50 42.8 76% 30.08 0.0
08 01:15 Calm 10.00 Fair CLR 50 42.8 76% 30.08 0.0
08 00:50 Vrbl 3 10.00 Fair CLR 51.8 44.6 77% 30.08 0.0
08 00:35 Calm 10.00 Fair CLR 51.8 42.8 72% 30.08 0.0
08 00:15 Vrbl 3 10.00 Fair CLR 53.6 42.8 67% 30.08 0.0
07 23:55 Calm 10.00 Fair CLR 53.6 44.6 72% 30.07 0.0
07 23:35 Calm 10.00 Fair CLR 53.6 42.8 67% 30.07 0.0
07 23:15 Calm 10.00 Fair CLR 55.4 44.6 67% 30.07 0.0
07 22:55 Calm 10.00 Fair CLR 55.4 44.6 67% 30.06 0.0
07 22:35 Calm 10.00 Fair CLR 57.2 44.6 63% 30.05 0.0
07 22:15 Calm 10.00 Fair CLR 59 44.6 59% 30.05 0.0
07 21:50 Calm 10.00 Fair CLR 60.8 44.6 55% 30.04 0.0
07 21:35 Calm 10.00 Fair CLR 60.8 46.4 59% 30.04 0.0
07 21:15 Calm 10.00 Fair CLR 62.6 46.4 56% 30.03 0.0
07 20:55 N 3 8.00 Fair CLR 64.4 46.4 52% 30.02 0.0
07 20:35 Calm 10.00 Fair CLR 68 44.6 43% 30.01 0.0
07 20:15 Calm 10.00 Fair CLR 71.6 42.8 36% 30 0.0
07 19:55 Calm 10.00 Fair CLR 75.2 39.2 27% 77 29.99 0.0
07 19:35 Calm 10.00 Fair CLR 78.8 37.4 23% 78 29.99 0.0
07 19:15 Vrbl 5 10.00 Fair CLR 80.6 35.6 20% 79 29.98 0.0
07 18:50 Vrbl 7 G 14 10.00 Fair CLR 80.6 35.6 20% 79 29.98 0.0
07 18:35 Vrbl 6 G 12 10.00 Fair CLR 82.4 37.4 20% 80 29.98 0.0
07 18:15 SW 9 10.00 Fair CLR 82.4 41 23% 80 29.98 0.0
07 17:55 SW 8 G 16 10.00 Fair CLR 84.2 41 22% 82 29.98 0.0
07 17:35 Vrbl 7 G 14 10.00 Fair CLR 84.2 41 22% 82 29.98 0.0
07 17:15 SW 10 10.00 Fair CLR 84.2 39.2 20% 81 29.98 0.0
07 16:55 Vrbl 5 G 14 10.00 Fair CLR 84.2 37.4 19% 81 29.98 0.0
07 16:35 Vrbl 7 G 18 10.00 Fair CLR 84.2 35.6 18% 81 29.98 0.0
07 16:15 SW 10 G 17 10.00 Fair CLR 84.2 35.6 18% 81 29.98 0.0
07 15:50 Vrbl 7 G 20 10.00 Fair CLR 86 33.8 15% 83 29.99 0.0
07 15:35 Vrbl 7 G 13 10.00 Fair CLR 86 32 14% 83 30 0.0
07 15:15 Vrbl 8 G 14 10.00 Fair CLR 86 32 14% 83 30 0.0
07 14:55 W 8 G 15 10.00 Fair CLR 84.2 30.2 14% 81 30.01 0.0
07 14:35 SW 10 G 17 10.00 Fair CLR 84.2 33.8 16% 81 30.02 0.0
07 14:15 SW 9 G 17 10.00 Fair CLR 82.4 33.8 17% 80 30.02 0.0
07 13:55 Vrbl 6 G 13 10.00 Fair CLR 82.4 35.6 19% 80 30.03 0.0
07 13:35 Vrbl 6 10.00 Fair CLR 80.6 42.8 26% 79 30.04 0.0
07 13:15 Vrbl 5 10.00 Fair CLR 78.8 44.6 30% 79 30.05 0.0
07 12:50 Calm 10.00 Fair CLR 77 46.4 34% 78 30.06 0.0
07 12:35 Vrbl 5 10.00 Fair CLR 75.2 46.4 36% 77 30.07 0.0
07 12:15 Calm 10.00 Fair CLR 75.2 46.4 36% 77 30.07 0.0
07 11:55 Vrbl 3 10.00 Fair CLR 73.4 48.2 41% 30.08 0.0
07 11:35 Calm 10.00 Fair CLR 71.6 50 47% 30.09 0.0
07 11:15 Vrbl 3 10.00 Fair CLR 69.8 48.2 46% 30.1 0.0
07 10:50 Calm 10.00 Fair CLR 68 50 53% 30.1 0.0
07 10:35 Calm 10.00 Fair CLR 68 51.8 56% 30.11 0.0
07 10:15 Calm 10.00 Fair CLR 66.2 51.8 60% 30.11 0.0
07 09:55 Calm 10.00 Fair CLR 64.4 51.8 64% 30.12 0.0
07 09:35 Calm 10.00 Fair CLR 62.6 51.8 68% 30.12 0.0
07 09:15 Calm 10.00 Fair CLR 60.8 50 68% 30.12 0.0
07 08:55 Calm 10.00 A Few Clouds FEW016 57.2 48.2 72% 30.13 0.0
07 08:35 Calm 10.00 Mostly Cloudy BKN015 55.4 46.4 72% 30.13 0.0
07 08:15 Calm 10.00 Overcast OVC015 51.8 46.4 82% 30.13 0.0
07 07:55 Calm 10.00 Mostly Cloudy BKN015 50 44.6 82% 30.13 0.0
07 07:35 Calm 10.00 A Few Clouds FEW015 46.4 44.6 93% 30.13 0.0
07 07:15 Calm 10.00 Fair CLR 46.4 44.6 93% 30.13 0.0
07 06:55 Calm 10.00 Partly Cloudy FEW013 SCT018 46.4 42.8 87% 30.12 0.0
07 06:35 Calm 10.00 Mostly Cloudy BKN015 46.4 42.8 87% 30.12 0.0
07 06:15 Calm 10.00 Overcast FEW010 OVC016 46.4 42.8 87% 30.11 0.0
07 05:55 Calm 10.00 Mostly Cloudy BKN015 BKN020 46.4 42.8 87% 30.11 0.0
07 05:35 Calm 10.00 Mostly Cloudy SCT013 BKN019 46.4 42.8 87% 30.11 0.0
07 05:15 Calm 10.00 Mostly Cloudy BKN019 46.4 42.8 87% 30.11 0.0
07 04:55 Calm 10.00 Fair CLR 46.4 44.6 93% 30.11 0.0
07 04:35 Calm 10.00 A Few Clouds FEW018 48.2 42.8 82% 30.11 0.0
07 04:15 Calm 10.00 A Few Clouds FEW018 48.2 42.8 82% 30.11 0.0
07 03:55 Calm 10.00 Fair CLR 48.2 42.8 82% 30.11 0.0
07 03:35 Calm 10.00 Fair CLR 48.2 42.8 82% 30.11 0.0
07 03:15 Calm 10.00 Fair CLR 48.2 42.8 82% 30.11 0.0
07 02:55 Calm 10.00 Fair CLR 50 42.8 76% 30.11 0.0
07 02:35 Calm 10.00 Fair CLR 50 42.8 76% 30.11 0.0
07 02:15 Calm 10.00 Fair CLR 50 42.8 76% 30.11 0.0
07 01:55 Calm 10.00 Fair CLR 51.8 44.6 77% 30.11 0.0
07 01:35 Calm 10.00 Fair CLR 51.8 44.6 77% 30.11 0.0
07 01:15 Calm 10.00 Fair CLR 53.6 44.6 72% 30.11 0.0
07 00:55 Calm 10.00 Fair CLR 53.6 44.6 72% 30.1 0.0
07 00:35 Calm 10.00 Fair CLR 53.6 44.6 72% 30.1 0.0
07 00:15 Calm 10.00 Fair CLR 53.6 44.6 72% 30.1 0.0
06 23:55 Calm 10.00 Fair CLR 55.4 46.4 72% 30.1 0.0
06 23:35 N 5 10.00 Fair CLR 57.2 46.4 67% 30.09 0.0
06 23:15 Calm 10.00 Fair CLR 57.2 46.4 67% 30.09 0.0
06 22:55 N 3 10.00 Fair CLR 59 46.4 63% 30.09 0.0
06 22:35 NE 5 10.00 Fair CLR 62.6 44.6 52% 30.09 0.0
06 22:15 S 6 10.00 Fair CLR 69.8 39.2 33% 30.08 0.0
06 21:55 Vrbl 6 10.00 Fair CLR 69.8 41 35% 30.08 0.0
06 21:35 Calm 10.00 Fair CLR 71.6 41 33% 30.07 0.0
06 21:15 Vrbl 6 10.00 Fair CLR 71.6 39.2 31% 30.06 0.0
06 20:55 S 6 10.00 Fair CLR 71.6 41 33% 30.05 0.0
06 20:35 Calm 10.00 Fair CLR 73.4 42.8 33% 30.05 0.0
06 20:15 S 6 10.00 Fair CLR 75.2 42.8 31% 77 30.04 0.0
06 19:55 S 6 10.00 Fair CLR 77 42.8 30% 78 30.04 0.0
06 19:35 Vrbl 7 G 14 10.00 Fair CLR 78.8 44.6 30% 79 30.03 0.0
06 19:15 Vrbl 5 G 15 10.00 Fair CLR 78.8 44.6 30% 79 30.03 0.0
06 18:55 S 9 10.00 Fair CLR 80.6 42.8 26% 79 30.03 0.0
Date Time (pdt) Wind (mph) Vis. (mi.) Weather Sky Cond. Air Dwpt Max. Min. Relative Humidity Wind Chill (°F) Heat Index (°F) altimeter (in) sea level (mb) 1 hr 3 hr 6 hr
6 hour
Temperature (ºF) Pressure Precipitation (in)